sensor_id;sensor_type;location;lat;lon;timestamp;P1;durP1;ratioP1;P2;durP2;ratioP2
14619;SDS011;32125;48.518;9.050;2023-02-28T00:02:22;3.30;;;3.00;;
14619;SDS011;32125;48.518;9.050;2023-02-28T00:04:48;3.53;;;2.90;;
14619;SDS011;32125;48.518;9.050;2023-02-28T00:07:17;3.53;;;3.00;;
14619;SDS011;32125;48.518;9.050;2023-02-28T00:09:46;3.60;;;3.03;;
14619;SDS011;32125;48.518;9.050;2023-02-28T00:12:12;6.03;;;3.43;;
14619;SDS011;32125;48.518;9.050;2023-02-28T00:14:38;4.40;;;3.13;;
14619;SDS011;32125;48.518;9.050;2023-02-28T00:17:04;3.30;;;3.00;;
14619;SDS011;32125;48.518;9.050;2023-02-28T00:19:30;4.77;;;3.20;;
14619;SDS011;32125;48.518;9.050;2023-02-28T00:21:56;3.77;;;3.20;;
14619;SDS011;32125;48.518;9.050;2023-02-28T00:24:22;4.13;;;3.17;;
14619;SDS011;32125;48.518;9.050;2023-02-28T00:26:48;5.17;;;3.57;;
14619;SDS011;32125;48.518;9.050;2023-02-28T00:29:16;3.97;;;3.30;;
14619;SDS011;32125;48.518;9.050;2023-02-28T00:31:48;3.57;;;3.27;;
14619;SDS011;32125;48.518;9.050;2023-02-28T00:34:14;3.50;;;3.20;;
14619;SDS011;32125;48.518;9.050;2023-02-28T00:36:40;5.20;;;3.37;;
14619;SDS011;32125;48.518;9.050;2023-02-28T00:39:11;5.00;;;3.27;;
14619;SDS011;32125;48.518;9.050;2023-02-28T00:41:37;4.50;;;3.40;;
14619;SDS011;32125;48.518;9.050;2023-02-28T00:44:03;3.53;;;3.10;;
14619;SDS011;32125;48.518;9.050;2023-02-28T00:46:29;3.93;;;3.20;;
14619;SDS011;32125;48.518;9.050;2023-02-28T00:48:55;4.10;;;3.33;;
14619;SDS011;32125;48.518;9.050;2023-02-28T00:51:23;4.83;;;3.23;;
14619;SDS011;32125;48.518;9.050;2023-02-28T00:53:49;3.90;;;3.00;;
14619;SDS011;32125;48.518;9.050;2023-02-28T00:56:15;4.40;;;3.30;;
14619;SDS011;32125;48.518;9.050;2023-02-28T00:58:41;4.30;;;3.10;;
14619;SDS011;32125;48.518;9.050;2023-02-28T01:01:07;4.10;;;3.40;;
14619;SDS011;32125;48.518;9.050;2023-02-28T01:03:33;4.07;;;3.30;;
14619;SDS011;32125;48.518;9.050;2023-02-28T01:05:59;4.53;;;3.20;;
14619;SDS011;32125;48.518;9.050;2023-02-28T01:08:25;5.47;;;3.40;;
14619;SDS011;32125;48.518;9.050;2023-02-28T01:10:51;3.40;;;3.00;;
14619;SDS011;32125;48.518;9.050;2023-02-28T01:13:18;3.40;;;3.00;;
14619;SDS011;32125;48.518;9.050;2023-02-28T01:15:51;3.27;;;2.90;;
14619;SDS011;32125;48.518;9.050;2023-02-28T01:18:19;3.40;;;3.10;;
14619;SDS011;32125;48.518;9.050;2023-02-28T01:20:48;3.73;;;3.20;;
14619;SDS011;32125;48.518;9.050;2023-02-28T01:23:19;4.33;;;3.40;;
14619;SDS011;32125;48.518;9.050;2023-02-28T01:25:46;3.87;;;3.23;;
14619;SDS011;32125;48.518;9.050;2023-02-28T01:28:12;3.20;;;2.80;;
14619;SDS011;32125;48.518;9.050;2023-02-28T01:30:40;4.27;;;3.10;;
14619;SDS011;32125;48.518;9.050;2023-02-28T01:33:06;3.83;;;3.33;;
14619;SDS011;32125;48.518;9.050;2023-02-28T01:35:33;3.83;;;3.10;;
14619;SDS011;32125;48.518;9.050;2023-02-28T01:37:59;4.17;;;3.07;;
14619;SDS011;32125;48.518;9.050;2023-02-28T01:40:27;3.77;;;3.30;;
14619;SDS011;32125;48.518;9.050;2023-02-28T01:42:53;4.77;;;3.33;;
14619;SDS011;32125;48.518;9.050;2023-02-28T01:45:24;6.27;;;3.10;;
14619;SDS011;32125;48.518;9.050;2023-02-28T01:47:54;3.50;;;3.20;;
14619;SDS011;32125;48.518;9.050;2023-02-28T01:50:24;3.40;;;3.10;;
14619;SDS011;32125;48.518;9.050;2023-02-28T01:52:56;4.33;;;3.27;;
14619;SDS011;32125;48.518;9.050;2023-02-28T01:55:28;3.27;;;2.90;;
14619;SDS011;32125;48.518;9.050;2023-02-28T01:57:58;5.20;;;3.60;;
14619;SDS011;32125;48.518;9.050;2023-02-28T02:00:26;4.07;;;3.00;;
14619;SDS011;32125;48.518;9.050;2023-02-28T02:02:53;4.83;;;3.50;;
14619;SDS011;32125;48.518;9.050;2023-02-28T02:05:24;5.93;;;3.50;;
14619;SDS011;32125;48.518;9.050;2023-02-28T02:07:55;5.73;;;3.40;;
14619;SDS011;32125;48.518;9.050;2023-02-28T02:10:38;3.63;;;3.10;;
14619;SDS011;32125;48.518;9.050;2023-02-28T02:22:12;5.27;;;3.43;;
14619;SDS011;32125;48.518;9.050;2023-02-28T02:24:58;6.00;;;3.67;;
14619;SDS011;32125;48.518;9.050;2023-02-28T02:33:38;3.63;;;3.33;;
14619;SDS011;32125;48.518;9.050;2023-02-28T02:36:38;4.73;;;3.60;;
14619;SDS011;32125;48.518;9.050;2023-02-28T02:41:41;5.40;;;3.60;;
14619;SDS011;32125;48.518;9.050;2023-02-28T02:44:30;5.07;;;3.60;;
14619;SDS011;32125;48.518;9.050;2023-02-28T02:47:12;5.13;;;3.47;;
14619;SDS011;32125;48.518;9.050;2023-02-28T02:49:42;3.93;;;3.40;;
14619;SDS011;32125;48.518;9.050;2023-02-28T02:52:22;4.77;;;3.73;;
14619;SDS011;32125;48.518;9.050;2023-02-28T02:54:52;5.20;;;3.73;;
14619;SDS011;32125;48.518;9.050;2023-02-28T02:57:28;4.93;;;3.70;;
14619;SDS011;32125;48.518;9.050;2023-02-28T03:00:02;5.00;;;3.37;;
14619;SDS011;32125;48.518;9.050;2023-02-28T03:02:29;4.10;;;3.70;;
14619;SDS011;32125;48.518;9.050;2023-02-28T03:04:59;5.07;;;3.90;;
14619;SDS011;32125;48.518;9.050;2023-02-28T03:07:32;6.03;;;3.63;;
14619;SDS011;32125;48.518;9.050;2023-02-28T03:10:00;6.70;;;3.80;;
14619;SDS011;32125;48.518;9.050;2023-02-28T03:12:30;3.87;;;3.43;;
14619;SDS011;32125;48.518;9.050;2023-02-28T03:20:15;4.83;;;4.10;;
14619;SDS011;32125;48.518;9.050;2023-02-28T03:22:57;4.90;;;3.87;;
14619;SDS011;32125;48.518;9.050;2023-02-28T03:33:10;6.63;;;4.30;;
14619;SDS011;32125;48.518;9.050;2023-02-28T03:35:42;6.30;;;3.80;;
14619;SDS011;32125;48.518;9.050;2023-02-28T03:38:33;5.93;;;4.40;;
14619;SDS011;32125;48.518;9.050;2023-02-28T03:41:13;4.13;;;3.73;;
14619;SDS011;32125;48.518;9.050;2023-02-28T03:43:53;6.23;;;4.37;;
14619;SDS011;32125;48.518;9.050;2023-02-28T03:46:22;5.17;;;4.00;;
14619;SDS011;32125;48.518;9.050;2023-02-28T03:49:01;6.43;;;4.57;;
14619;SDS011;32125;48.518;9.050;2023-02-28T03:51:37;4.20;;;3.80;;
14619;SDS011;32125;48.518;9.050;2023-02-28T03:54:17;5.13;;;4.10;;
14619;SDS011;32125;48.518;9.050;2023-02-28T04:02:21;5.33;;;4.37;;
14619;SDS011;32125;48.518;9.050;2023-02-28T04:04:47;5.80;;;4.60;;
14619;SDS011;32125;48.518;9.050;2023-02-28T04:07:16;5.90;;;4.57;;
14619;SDS011;32125;48.518;9.050;2023-02-28T04:09:42;4.77;;;4.20;;
14619;SDS011;32125;48.518;9.050;2023-02-28T04:12:08;7.07;;;4.20;;
14619;SDS011;32125;48.518;9.050;2023-02-28T04:14:37;5.37;;;4.47;;
14619;SDS011;32125;48.518;9.050;2023-02-28T04:17:02;6.57;;;4.90;;
14619;SDS011;32125;48.518;9.050;2023-02-28T04:19:28;6.00;;;4.73;;
14619;SDS011;32125;48.518;9.050;2023-02-28T04:21:54;6.00;;;4.37;;
14619;SDS011;32125;48.518;9.050;2023-02-28T04:24:22;6.80;;;4.40;;
14619;SDS011;32125;48.518;9.050;2023-02-28T04:26:50;5.00;;;4.30;;
14619;SDS011;32125;48.518;9.050;2023-02-28T04:29:38;7.67;;;4.43;;
14619;SDS011;32125;48.518;9.050;2023-02-28T04:32:09;6.17;;;4.70;;
14619;SDS011;32125;48.518;9.050;2023-02-28T04:34:35;7.23;;;5.40;;
14619;SDS011;32125;48.518;9.050;2023-02-28T04:37:04;5.57;;;4.60;;
14619;SDS011;32125;48.518;9.050;2023-02-28T04:39:34;7.00;;;5.10;;
14619;SDS011;32125;48.518;9.050;2023-02-28T04:42:01;4.97;;;4.23;;
14619;SDS011;32125;48.518;9.050;2023-02-28T04:44:27;6.17;;;4.67;;
14619;SDS011;32125;48.518;9.050;2023-02-28T04:46:53;6.43;;;4.90;;
14619;SDS011;32125;48.518;9.050;2023-02-28T04:49:19;5.67;;;4.57;;
14619;SDS011;32125;48.518;9.050;2023-02-28T04:51:45;6.63;;;5.10;;
14619;SDS011;32125;48.518;9.050;2023-02-28T04:54:11;5.03;;;4.50;;
14619;SDS011;32125;48.518;9.050;2023-02-28T04:56:41;6.60;;;5.00;;
14619;SDS011;32125;48.518;9.050;2023-02-28T04:59:07;5.30;;;4.70;;
14619;SDS011;32125;48.518;9.050;2023-02-28T05:01:33;6.13;;;5.30;;
14619;SDS011;32125;48.518;9.050;2023-02-28T05:04:02;7.13;;;5.13;;
14619;SDS011;32125;48.518;9.050;2023-02-28T05:06:30;6.77;;;5.00;;
14619;SDS011;32125;48.518;9.050;2023-02-28T05:08:57;6.57;;;4.90;;
14619;SDS011;32125;48.518;9.050;2023-02-28T05:11:25;7.07;;;5.00;;
14619;SDS011;32125;48.518;9.050;2023-02-28T05:13:53;7.07;;;5.47;;
14619;SDS011;32125;48.518;9.050;2023-02-28T05:16:20;6.60;;;5.03;;
14619;SDS011;32125;48.518;9.050;2023-02-28T05:18:46;6.27;;;5.10;;
14619;SDS011;32125;48.518;9.050;2023-02-28T05:21:25;7.73;;;5.63;;
14619;SDS011;32125;48.518;9.050;2023-02-28T05:24:00;7.90;;;5.50;;
14619;SDS011;32125;48.518;9.050;2023-02-28T05:26:29;6.73;;;5.37;;
14619;SDS011;32125;48.518;9.050;2023-02-28T05:28:55;7.63;;;5.37;;
14619;SDS011;32125;48.518;9.050;2023-02-28T05:31:23;6.47;;;5.37;;
14619;SDS011;32125;48.518;9.050;2023-02-28T05:33:51;6.93;;;5.60;;
14619;SDS011;32125;48.518;9.050;2023-02-28T05:36:17;7.60;;;5.60;;
14619;SDS011;32125;48.518;9.050;2023-02-28T05:38:46;7.70;;;5.70;;
14619;SDS011;32125;48.518;9.050;2023-02-28T05:41:12;7.50;;;6.07;;
14619;SDS011;32125;48.518;9.050;2023-02-28T05:43:38;7.03;;;5.77;;
14619;SDS011;32125;48.518;9.050;2023-02-28T05:46:09;8.03;;;6.20;;
14619;SDS011;32125;48.518;9.050;2023-02-28T05:48:36;10.43;;;5.70;;
14619;SDS011;32125;48.518;9.050;2023-02-28T05:51:03;8.03;;;5.83;;
14619;SDS011;32125;48.518;9.050;2023-02-28T05:53:29;7.67;;;5.67;;
14619;SDS011;32125;48.518;9.050;2023-02-28T05:55:55;8.77;;;6.73;;
14619;SDS011;32125;48.518;9.050;2023-02-28T05:58:21;7.47;;;5.57;;
14619;SDS011;32125;48.518;9.050;2023-02-28T06:00:48;7.43;;;6.40;;
14619;SDS011;32125;48.518;9.050;2023-02-28T06:03:16;8.03;;;5.80;;
14619;SDS011;32125;48.518;9.050;2023-02-28T06:05:42;7.60;;;6.00;;
14619;SDS011;32125;48.518;9.050;2023-02-28T06:08:08;7.43;;;6.03;;
14619;SDS011;32125;48.518;9.050;2023-02-28T06:10:34;7.33;;;6.10;;
14619;SDS011;32125;48.518;9.050;2023-02-28T06:13:01;7.47;;;6.10;;
14619;SDS011;32125;48.518;9.050;2023-02-28T06:15:27;8.10;;;6.60;;
14619;SDS011;32125;48.518;9.050;2023-02-28T06:17:53;8.97;;;6.43;;
14619;SDS011;32125;48.518;9.050;2023-02-28T06:20:21;9.33;;;6.33;;
14619;SDS011;32125;48.518;9.050;2023-02-28T06:22:51;11.40;;;6.43;;
14619;SDS011;32125;48.518;9.050;2023-02-28T06:25:19;9.47;;;6.60;;
14619;SDS011;32125;48.518;9.050;2023-02-28T06:27:52;9.03;;;6.47;;
14619;SDS011;32125;48.518;9.050;2023-02-28T06:30:19;8.40;;;6.57;;
14619;SDS011;32125;48.518;9.050;2023-02-28T06:32:48;10.17;;;6.93;;
14619;SDS011;32125;48.518;9.050;2023-02-28T06:35:14;9.77;;;6.97;;
14619;SDS011;32125;48.518;9.050;2023-02-28T06:37:40;7.57;;;6.60;;
14619;SDS011;32125;48.518;9.050;2023-02-28T06:40:09;7.90;;;6.33;;
14619;SDS011;32125;48.518;9.050;2023-02-28T06:42:35;8.80;;;6.80;;
14619;SDS011;32125;48.518;9.050;2023-02-28T06:45:02;8.70;;;6.67;;
14619;SDS011;32125;48.518;9.050;2023-02-28T06:47:36;7.40;;;6.20;;
14619;SDS011;32125;48.518;9.050;2023-02-28T06:50:04;8.70;;;6.83;;
14619;SDS011;32125;48.518;9.050;2023-02-28T06:52:32;10.93;;;6.87;;
14619;SDS011;32125;48.518;9.050;2023-02-28T06:55:01;8.10;;;6.47;;
14619;SDS011;32125;48.518;9.050;2023-02-28T06:57:28;8.33;;;6.70;;
14619;SDS011;32125;48.518;9.050;2023-02-28T07:00:01;9.70;;;7.07;;
14619;SDS011;32125;48.518;9.050;2023-02-28T07:02:35;9.27;;;7.20;;
14619;SDS011;32125;48.518;9.050;2023-02-28T07:05:02;11.77;;;7.27;;
14619;SDS011;32125;48.518;9.050;2023-02-28T07:07:28;9.47;;;7.27;;
14619;SDS011;32125;48.518;9.050;2023-02-28T07:09:55;10.60;;;7.23;;
14619;SDS011;32125;48.518;9.050;2023-02-28T07:12:22;10.10;;;6.93;;
14619;SDS011;32125;48.518;9.050;2023-02-28T07:14:48;11.43;;;7.70;;
14619;SDS011;32125;48.518;9.050;2023-02-28T07:17:14;10.23;;;7.93;;
14619;SDS011;32125;48.518;9.050;2023-02-28T07:19:43;11.07;;;6.70;;
14619;SDS011;32125;48.518;9.050;2023-02-28T07:22:09;9.53;;;7.73;;
14619;SDS011;32125;48.518;9.050;2023-02-28T07:24:37;9.50;;;7.60;;
14619;SDS011;32125;48.518;9.050;2023-02-28T07:27:03;11.50;;;7.63;;
14619;SDS011;32125;48.518;9.050;2023-02-28T07:29:29;8.67;;;7.27;;
14619;SDS011;32125;48.518;9.050;2023-02-28T07:31:55;13.47;;;8.07;;
14619;SDS011;32125;48.518;9.050;2023-02-28T07:34:22;9.93;;;7.50;;
14619;SDS011;32125;48.518;9.050;2023-02-28T07:36:48;10.63;;;7.83;;
14619;SDS011;32125;48.518;9.050;2023-02-28T07:39:18;10.10;;;7.73;;
14619;SDS011;32125;48.518;9.050;2023-02-28T07:41:44;11.90;;;7.90;;
14619;SDS011;32125;48.518;9.050;2023-02-28T07:44:10;10.63;;;8.27;;
14619;SDS011;32125;48.518;9.050;2023-02-28T07:46:36;10.13;;;7.93;;
14619;SDS011;32125;48.518;9.050;2023-02-28T07:49:05;12.17;;;7.60;;
14619;SDS011;32125;48.518;9.050;2023-02-28T07:51:31;10.07;;;7.83;;
14619;SDS011;32125;48.518;9.050;2023-02-28T07:53:57;9.93;;;7.60;;
14619;SDS011;32125;48.518;9.050;2023-02-28T07:56:23;9.40;;;7.63;;
14619;SDS011;32125;48.518;9.050;2023-02-28T07:58:49;12.03;;;8.03;;
14619;SDS011;32125;48.518;9.050;2023-02-28T08:01:15;10.23;;;8.00;;
14619;SDS011;32125;48.518;9.050;2023-02-28T08:03:42;11.20;;;8.47;;
14619;SDS011;32125;48.518;9.050;2023-02-28T08:06:11;10.87;;;7.87;;
14619;SDS011;32125;48.518;9.050;2023-02-28T08:08:41;10.07;;;7.93;;
14619;SDS011;32125;48.518;9.050;2023-02-28T08:11:11;10.87;;;8.27;;
14619;SDS011;32125;48.518;9.050;2023-02-28T08:13:37;9.93;;;7.73;;
14619;SDS011;32125;48.518;9.050;2023-02-28T08:16:07;11.70;;;8.13;;
14619;SDS011;32125;48.518;9.050;2023-02-28T08:18:37;9.77;;;8.07;;
14619;SDS011;32125;48.518;9.050;2023-02-28T08:21:12;9.87;;;8.07;;
14619;SDS011;32125;48.518;9.050;2023-02-28T08:23:38;10.97;;;8.07;;
14619;SDS011;32125;48.518;9.050;2023-02-28T08:26:04;10.73;;;8.23;;
14619;SDS011;32125;48.518;9.050;2023-02-28T08:28:30;11.97;;;8.70;;
14619;SDS011;32125;48.518;9.050;2023-02-28T08:30:56;13.00;;;8.00;;
14619;SDS011;32125;48.518;9.050;2023-02-28T08:33:22;9.77;;;7.77;;
14619;SDS011;32125;48.518;9.050;2023-02-28T08:35:54;10.57;;;8.33;;
14619;SDS011;32125;48.518;9.050;2023-02-28T08:38:20;14.03;;;8.43;;
14619;SDS011;32125;48.518;9.050;2023-02-28T08:40:46;10.33;;;8.00;;
14619;SDS011;32125;48.518;9.050;2023-02-28T08:43:14;12.50;;;8.20;;
14619;SDS011;32125;48.518;9.050;2023-02-28T08:45:43;9.97;;;8.03;;
14619;SDS011;32125;48.518;9.050;2023-02-28T08:48:09;12.27;;;8.40;;
14619;SDS011;32125;48.518;9.050;2023-02-28T08:50:35;12.67;;;8.87;;
14619;SDS011;32125;48.518;9.050;2023-02-28T08:53:01;11.23;;;8.67;;
14619;SDS011;32125;48.518;9.050;2023-02-28T08:55:27;12.33;;;9.27;;
14619;SDS011;32125;48.518;9.050;2023-02-28T08:57:53;10.93;;;8.80;;
14619;SDS011;32125;48.518;9.050;2023-02-28T09:00:20;11.83;;;8.77;;
14619;SDS011;32125;48.518;9.050;2023-02-28T09:02:46;12.10;;;8.97;;
14619;SDS011;32125;48.518;9.050;2023-02-28T09:05:12;10.57;;;8.73;;
14619;SDS011;32125;48.518;9.050;2023-02-28T09:07:38;12.67;;;9.50;;
14619;SDS011;32125;48.518;9.050;2023-02-28T09:10:04;11.50;;;9.10;;
14619;SDS011;32125;48.518;9.050;2023-02-28T09:12:32;12.37;;;9.50;;
14619;SDS011;32125;48.518;9.050;2023-02-28T09:15:00;11.13;;;8.97;;
14619;SDS011;32125;48.518;9.050;2023-02-28T09:17:26;12.20;;;9.17;;
14619;SDS011;32125;48.518;9.050;2023-02-28T09:19:52;12.13;;;8.93;;
14619;SDS011;32125;48.518;9.050;2023-02-28T09:22:18;11.47;;;9.53;;
14619;SDS011;32125;48.518;9.050;2023-02-28T09:24:44;12.43;;;9.03;;
14619;SDS011;32125;48.518;9.050;2023-02-28T09:27:10;12.50;;;8.87;;
14619;SDS011;32125;48.518;9.050;2023-02-28T09:29:36;11.77;;;8.73;;
14619;SDS011;32125;48.518;9.050;2023-02-28T09:32:03;12.20;;;9.20;;
14619;SDS011;32125;48.518;9.050;2023-02-28T09:34:32;13.30;;;9.50;;
14619;SDS011;32125;48.518;9.050;2023-02-28T09:36:58;11.13;;;8.83;;
14619;SDS011;32125;48.518;9.050;2023-02-28T09:39:26;13.47;;;8.90;;
14619;SDS011;32125;48.518;9.050;2023-02-28T09:41:54;12.80;;;9.40;;
14619;SDS011;32125;48.518;9.050;2023-02-28T09:46:51;10.90;;;8.47;;
14619;SDS011;32125;48.518;9.050;2023-02-28T09:49:28;11.83;;;9.73;;
14619;SDS011;32125;48.518;9.050;2023-02-28T09:52:10;12.87;;;9.27;;
14619;SDS011;32125;48.518;9.050;2023-02-28T09:54:41;11.83;;;9.03;;
14619;SDS011;32125;48.518;9.050;2023-02-28T10:04:56;10.33;;;8.73;;
14619;SDS011;32125;48.518;9.050;2023-02-28T10:09:52;11.70;;;8.60;;
14619;SDS011;32125;48.518;9.050;2023-02-28T10:12:19;9.97;;;8.13;;
14619;SDS011;32125;48.518;9.050;2023-02-28T10:14:46;10.80;;;8.93;;
14619;SDS011;32125;48.518;9.050;2023-02-28T10:17:19;10.90;;;9.20;;
14619;SDS011;32125;48.518;9.050;2023-02-28T10:22:29;12.60;;;9.17;;
14619;SDS011;32125;48.518;9.050;2023-02-28T10:25:05;9.87;;;8.47;;
14619;SDS011;32125;48.518;9.050;2023-02-28T10:27:41;11.10;;;8.93;;
14619;SDS011;32125;48.518;9.050;2023-02-28T10:30:09;11.30;;;9.03;;
14619;SDS011;32125;48.518;9.050;2023-02-28T10:32:40;15.33;;;9.70;;
14619;SDS011;32125;48.518;9.050;2023-02-28T10:35:24;10.90;;;8.93;;
14619;SDS011;32125;48.518;9.050;2023-02-28T10:37:58;11.53;;;9.07;;
14619;SDS011;32125;48.518;9.050;2023-02-28T10:40:27;11.13;;;9.43;;
14619;SDS011;32125;48.518;9.050;2023-02-28T10:45:21;12.13;;;9.40;;
14619;SDS011;32125;48.518;9.050;2023-02-28T10:50:36;14.70;;;9.97;;
14619;SDS011;32125;48.518;9.050;2023-02-28T10:55:36;10.93;;;8.80;;
14619;SDS011;32125;48.518;9.050;2023-02-28T10:58:02;12.03;;;9.47;;
14619;SDS011;32125;48.518;9.050;2023-02-28T11:00:32;11.57;;;9.37;;
14619;SDS011;32125;48.518;9.050;2023-02-28T11:03:00;14.07;;;9.13;;
14619;SDS011;32125;48.518;9.050;2023-02-28T11:05:30;11.57;;;9.07;;
14619;SDS011;32125;48.518;9.050;2023-02-28T11:07:59;12.80;;;9.03;;
14619;SDS011;32125;48.518;9.050;2023-02-28T11:10:33;11.87;;;9.37;;
14619;SDS011;32125;48.518;9.050;2023-02-28T11:12:59;10.83;;;9.10;;
14619;SDS011;32125;48.518;9.050;2023-02-28T11:15:31;11.77;;;8.43;;
14619;SDS011;32125;48.518;9.050;2023-02-28T11:18:02;10.90;;;9.00;;
14619;SDS011;32125;48.518;9.050;2023-02-28T11:20:29;9.67;;;8.30;;
14619;SDS011;32125;48.518;9.050;2023-02-28T11:23:02;10.10;;;8.27;;
14619;SDS011;32125;48.518;9.050;2023-02-28T11:25:30;11.17;;;8.93;;
14619;SDS011;32125;48.518;9.050;2023-02-28T11:27:58;11.77;;;9.13;;
14619;SDS011;32125;48.518;9.050;2023-02-28T11:30:27;10.10;;;8.70;;
14619;SDS011;32125;48.518;9.050;2023-02-28T11:32:56;10.13;;;8.43;;
14619;SDS011;32125;48.518;9.050;2023-02-28T11:37:51;11.93;;;8.37;;
14619;SDS011;32125;48.518;9.050;2023-02-28T11:40:18;9.93;;;8.37;;
14619;SDS011;32125;48.518;9.050;2023-02-28T11:42:59;8.93;;;7.97;;
14619;SDS011;32125;48.518;9.050;2023-02-28T11:45:36;11.53;;;8.17;;
14619;SDS011;32125;48.518;9.050;2023-02-28T11:53:10;8.60;;;7.70;;
14619;SDS011;32125;48.518;9.050;2023-02-28T11:56:00;8.47;;;7.53;;
14619;SDS011;32125;48.518;9.050;2023-02-28T12:00:57;8.97;;;8.07;;
14619;SDS011;32125;48.518;9.050;2023-02-28T12:08:53;9.20;;;8.30;;
14619;SDS011;32125;48.518;9.050;2023-02-28T12:27:10;8.90;;;8.00;;
14619;SDS011;32125;48.518;9.050;2023-02-28T12:29:50;9.73;;;7.93;;
14619;SDS011;32125;48.518;9.050;2023-02-28T12:35:32;11.87;;;8.50;;
14619;SDS011;32125;48.518;9.050;2023-02-28T12:38:04;10.40;;;8.80;;
14619;SDS011;32125;48.518;9.050;2023-02-28T12:40:34;9.87;;;7.87;;
14619;SDS011;32125;48.518;9.050;2023-02-28T12:43:07;10.33;;;8.10;;
14619;SDS011;32125;48.518;9.050;2023-02-28T12:45:40;9.67;;;8.70;;
14619;SDS011;32125;48.518;9.050;2023-02-28T12:48:24;9.70;;;8.53;;
14619;SDS011;32125;48.518;9.050;2023-02-28T12:50:51;10.60;;;8.20;;
14619;SDS011;32125;48.518;9.050;2023-02-28T12:53:26;9.37;;;8.10;;
14619;SDS011;32125;48.518;9.050;2023-02-28T13:06:00;8.70;;;7.80;;
14619;SDS011;32125;48.518;9.050;2023-02-28T13:11:19;8.83;;;7.80;;
14619;SDS011;32125;48.518;9.050;2023-02-28T13:14:03;9.10;;;8.03;;
14619;SDS011;32125;48.518;9.050;2023-02-28T13:16:54;9.00;;;8.10;;
14619;SDS011;32125;48.518;9.050;2023-02-28T13:19:23;9.10;;;8.20;;
14619;SDS011;32125;48.518;9.050;2023-02-28T13:21:52;11.17;;;8.50;;
14619;SDS011;32125;48.518;9.050;2023-02-28T13:29:39;10.67;;;8.50;;
14619;SDS011;32125;48.518;9.050;2023-02-28T13:34:37;8.57;;;7.67;;
14619;SDS011;32125;48.518;9.050;2023-02-28T13:47:44;9.43;;;8.47;;
14619;SDS011;32125;48.518;9.050;2023-02-28T13:52:50;9.30;;;8.40;;
14619;SDS011;32125;48.518;9.050;2023-02-28T13:55:25;9.20;;;8.30;;
14619;SDS011;32125;48.518;9.050;2023-02-28T14:00:42;9.87;;;8.90;;
14619;SDS011;32125;48.518;9.050;2023-02-28T14:08:36;10.10;;;8.93;;
14619;SDS011;32125;48.518;9.050;2023-02-28T14:11:04;12.27;;;9.00;;
14619;SDS011;32125;48.518;9.050;2023-02-28T14:13:42;11.00;;;8.47;;
14619;SDS011;32125;48.518;9.050;2023-02-28T14:16:22;9.60;;;8.60;;
14619;SDS011;32125;48.518;9.050;2023-02-28T14:21:34;10.00;;;9.00;;
14619;SDS011;32125;48.518;9.050;2023-02-28T14:31:58;10.03;;;8.90;;
14619;SDS011;32125;48.518;9.050;2023-02-28T14:34:54;10.33;;;8.93;;
14619;SDS011;32125;48.518;9.050;2023-02-28T14:37:29;10.07;;;9.07;;
14619;SDS011;32125;48.518;9.050;2023-02-28T14:39:58;9.57;;;8.57;;
14619;SDS011;32125;48.518;9.050;2023-02-28T14:42:36;9.87;;;8.57;;
14619;SDS011;32125;48.518;9.050;2023-02-28T14:45:19;11.57;;;8.53;;
14619;SDS011;32125;48.518;9.050;2023-02-28T14:47:45;9.80;;;8.53;;
14619;SDS011;32125;48.518;9.050;2023-02-28T14:50:18;9.80;;;8.80;;
14619;SDS011;32125;48.518;9.050;2023-02-28T14:52:51;9.53;;;8.53;;
14619;SDS011;32125;48.518;9.050;2023-02-28T14:55:20;11.60;;;9.20;;
14619;SDS011;32125;48.518;9.050;2023-02-28T14:58:19;11.33;;;8.87;;
14619;SDS011;32125;48.518;9.050;2023-02-28T15:00:47;10.47;;;8.87;;
14619;SDS011;32125;48.518;9.050;2023-02-28T15:03:34;9.77;;;8.77;;
14619;SDS011;32125;48.518;9.050;2023-02-28T15:06:04;9.30;;;8.40;;
14619;SDS011;32125;48.518;9.050;2023-02-28T15:08:32;9.90;;;8.73;;
14619;SDS011;32125;48.518;9.050;2023-02-28T15:13:31;11.43;;;9.10;;
14619;SDS011;32125;48.518;9.050;2023-02-28T15:16:01;9.70;;;8.70;;
14619;SDS011;32125;48.518;9.050;2023-02-28T15:21:07;9.97;;;8.50;;
14619;SDS011;32125;48.518;9.050;2023-02-28T15:23:34;9.67;;;8.67;;
14619;SDS011;32125;48.518;9.050;2023-02-28T15:26:02;12.00;;;9.13;;
14619;SDS011;32125;48.518;9.050;2023-02-28T15:28:28;10.63;;;8.43;;
14619;SDS011;32125;48.518;9.050;2023-02-28T15:30:58;10.03;;;8.27;;
14619;SDS011;32125;48.518;9.050;2023-02-28T15:33:26;11.60;;;8.90;;
14619;SDS011;32125;48.518;9.050;2023-02-28T15:36:15;9.23;;;8.33;;
14619;SDS011;32125;48.518;9.050;2023-02-28T15:38:43;9.23;;;8.33;;
14619;SDS011;32125;48.518;9.050;2023-02-28T15:41:28;10.07;;;8.67;;
14619;SDS011;32125;48.518;9.050;2023-02-28T15:46:40;13.80;;;9.13;;
14619;SDS011;32125;48.518;9.050;2023-02-28T15:49:17;10.60;;;8.53;;
14619;SDS011;32125;48.518;9.050;2023-02-28T15:51:45;11.57;;;9.10;;
14619;SDS011;32125;48.518;9.050;2023-02-28T15:54:30;10.83;;;8.97;;
14619;SDS011;32125;48.518;9.050;2023-02-28T15:57:00;11.40;;;9.10;;
14619;SDS011;32125;48.518;9.050;2023-02-28T15:59:28;12.80;;;10.60;;
14619;SDS011;32125;48.518;9.050;2023-02-28T16:02:11;10.47;;;9.00;;
14619;SDS011;32125;48.518;9.050;2023-02-28T16:07:42;11.67;;;9.60;;
14619;SDS011;32125;48.518;9.050;2023-02-28T16:10:10;11.87;;;9.17;;
14619;SDS011;32125;48.518;9.050;2023-02-28T16:12:37;9.20;;;8.30;;
14619;SDS011;32125;48.518;9.050;2023-02-28T16:15:08;10.93;;;9.30;;
14619;SDS011;32125;48.518;9.050;2023-02-28T16:17:42;13.77;;;10.77;;
14619;SDS011;32125;48.518;9.050;2023-02-28T16:20:15;11.37;;;9.33;;
14619;SDS011;32125;48.518;9.050;2023-02-28T16:22:43;14.27;;;9.90;;
14619;SDS011;32125;48.518;9.050;2023-02-28T16:25:16;11.93;;;9.67;;
14619;SDS011;32125;48.518;9.050;2023-02-28T16:27:43;14.50;;;9.33;;
14619;SDS011;32125;48.518;9.050;2023-02-28T16:30:18;13.87;;;9.90;;
14619;SDS011;32125;48.518;9.050;2023-02-28T16:32:56;14.13;;;9.23;;
14619;SDS011;32125;48.518;9.050;2023-02-28T16:35:22;11.37;;;9.63;;
14619;SDS011;32125;48.518;9.050;2023-02-28T16:37:50;11.50;;;9.40;;
14619;SDS011;32125;48.518;9.050;2023-02-28T16:40:23;11.23;;;9.17;;
14619;SDS011;32125;48.518;9.050;2023-02-28T16:42:54;11.57;;;9.70;;
14619;SDS011;32125;48.518;9.050;2023-02-28T16:45:24;12.13;;;9.93;;
14619;SDS011;32125;48.518;9.050;2023-02-28T16:47:54;12.70;;;9.87;;
14619;SDS011;32125;48.518;9.050;2023-02-28T16:50:21;12.70;;;9.57;;
14619;SDS011;32125;48.518;9.050;2023-02-28T16:52:47;12.13;;;9.53;;
14619;SDS011;32125;48.518;9.050;2023-02-28T16:55:14;11.60;;;9.47;;
14619;SDS011;32125;48.518;9.050;2023-02-28T16:57:40;12.83;;;9.90;;
14619;SDS011;32125;48.518;9.050;2023-02-28T17:00:07;13.70;;;10.27;;
14619;SDS011;32125;48.518;9.050;2023-02-28T17:02:37;14.87;;;9.53;;
14619;SDS011;32125;48.518;9.050;2023-02-28T17:05:03;12.40;;;9.40;;
14619;SDS011;32125;48.518;9.050;2023-02-28T17:07:29;12.03;;;9.47;;
14619;SDS011;32125;48.518;9.050;2023-02-28T17:09:55;12.80;;;9.40;;
14619;SDS011;32125;48.518;9.050;2023-02-28T17:12:21;12.77;;;9.73;;
14619;SDS011;32125;48.518;9.050;2023-02-28T17:14:47;12.50;;;10.20;;
14619;SDS011;32125;48.518;9.050;2023-02-28T17:17:15;14.73;;;10.53;;
14619;SDS011;32125;48.518;9.050;2023-02-28T17:19:45;12.43;;;9.67;;
14619;SDS011;32125;48.518;9.050;2023-02-28T17:22:11;11.77;;;9.80;;
14619;SDS011;32125;48.518;9.050;2023-02-28T17:24:37;13.43;;;9.87;;
14619;SDS011;32125;48.518;9.050;2023-02-28T17:27:03;12.07;;;9.73;;
14619;SDS011;32125;48.518;9.050;2023-02-28T17:29:34;13.40;;;10.30;;
14619;SDS011;32125;48.518;9.050;2023-02-28T17:32:03;11.93;;;9.97;;
14619;SDS011;32125;48.518;9.050;2023-02-28T17:34:29;14.23;;;10.17;;